Time;durP1;ratioP1;P1;durP2;ratioP2;P2;SDS_P1;SDS_P2;PMS_P1;PMS_P2;Temp;Humidity;BMP_temperature;BMP_pressure;BME280_temperature;BME280_humidity;BME280_pressure;Samples;Min_cycle;Max_cycle;Signal;HPM_P1;HPM_P2
2022/08/23 00:00:06;;;;;;;;;;;24.20;64.10;;;;;;6311066;27;19966;-41
2022/08/23 00:03:14;;;;;;;;;;;24.70;64.40;;;;;;6327447;27;19995;-43
2022/08/23 00:06:16;;;;;;;;;;;24.70;64.40;;;;;;6331456;27;19934;-43
2022/08/23 00:09:20;;;;;;;;;;;24.70;64.40;;;;;;6335615;27;20731;-41
2022/08/23 00:12:22;;;;;;;;;;;24.90;64.60;;;;;;6311177;27;21167;-41
2022/08/23 00:15:24;;;;;;;;;;;24.70;64.40;;;;;;6327260;27;20049;-42
2022/08/23 00:18:25;;;;;;;;;;;24.80;64.50;;;;;;6327713;27;19934;-40
2022/08/23 00:21:28;;;;;;;;;;;24.60;64.50;;;;;;6325372;27;20054;-43
2022/08/23 00:24:29;;;;;;;;;;;24.70;64.50;;;;;;6325222;27;19927;-43
2022/08/23 00:27:35;;;;;;;;;;;24.90;64.70;;;;;;6325622;27;20050;-41
2022/08/23 00:30:36;;;;;;;;;;;24.50;64.40;;;;;;6327571;27;19966;-41
2022/08/23 00:33:41;;;;;;;;;;;24.70;64.60;;;;;;6330285;27;19924;-40
2022/08/23 00:36:43;;;;;;;;;;;24.50;64.50;;;;;;6328757;27;19967;-44
2022/08/23 00:39:45;;;;;;;;;;;24.70;64.60;;;;;;6330012;27;20042;-41
2022/08/23 00:49:21;;;;;;;;;;;24.70;64.70;;;;;;6321602;27;20078;-42
2022/08/23 00:52:27;;;;;;;;;;;24.90;64.80;;;;;;6320510;27;19931;-42
2022/08/23 00:55:28;;;;;;;;;;;24.50;64.60;;;;;;6321289;27;21022;-43
2022/08/23 00:58:31;;;;;;;;;;;24.60;64.70;;;;;;6321085;27;20010;-42
2022/08/23 01:01:32;;;;;;;;;;;24.60;64.70;;;;;;6302506;27;20027;-42
2022/08/23 01:04:37;;;;;;;;;;;24.70;64.70;;;;;;6320431;27;20507;-40
2022/08/23 01:07:45;;;;;;;;;;;24.60;64.70;;;;;;6322354;27;20370;-44
2022/08/23 01:10:48;;;;;;;;;;;24.70;64.80;;;;;;6323883;27;19931;-41
2022/08/23 01:13:52;;;;;;;;;;;24.50;64.70;;;;;;6299651;27;19927;-41
2022/08/23 01:16:54;;;;;;;;;;;24.70;64.80;;;;;;6299788;27;20484;-43
2022/08/23 01:19:58;;;;;;;;;;;24.40;64.70;;;;;;6317917;27;20122;-44
2022/08/23 01:23:03;;;;;;;;;;;24.90;65.00;;;;;;6320062;27;20733;-43
2022/08/23 01:26:06;;;;;;;;;;;24.60;64.80;;;;;;6301892;27;19923;-43
2022/08/23 01:29:15;;;;;;;;;;;24.80;64.90;;;;;;6320216;27;19927;-39
2022/08/23 01:32:17;;;;;;;;;;;24.60;64.90;;;;;;6321531;27;20109;-41
2022/08/23 01:35:19;;;;;;;;;;;24.70;64.90;;;;;;6321349;27;20085;-44
2022/08/23 01:38:26;;;;;;;;;;;24.60;64.80;;;;;;6273443;27;19948;-42
2022/08/23 01:41:32;;;;;;;;;;;24.50;64.90;;;;;;6319025;27;19934;-40
2022/08/23 01:44:34;;;;;;;;;;;24.50;64.90;;;;;;6321105;27;20275;-42
2022/08/23 01:47:36;;;;;;;;;;;24.60;64.90;;;;;;6300531;27;19923;-42
2022/08/23 01:50:41;;;;;;;;;;;24.50;64.90;;;;;;6298388;27;20849;-43
2022/08/23 01:53:42;;;;;;;;;;;24.50;64.90;;;;;;6298656;27;19927;-42
2022/08/23 01:56:45;;;;;;;;;;;24.60;65.00;;;;;;6319139;27;20109;-41
2022/08/23 01:59:49;;;;;;;;;;;24.80;65.20;;;;;;6317985;27;19927;-41
2022/08/23 02:02:51;;;;;;;;;;;24.40;64.90;;;;;;6317711;27;19927;-43
2022/08/23 02:05:53;;;;;;;;;;;24.80;65.20;;;;;;6301395;27;19937;-43
2022/08/23 02:09:03;;;;;;;;;;;24.70;65.20;;;;;;6316258;27;20413;-45
2022/08/23 02:12:09;;;;;;;;;;;24.70;65.20;;;;;;6318755;27;20617;-42
2022/08/23 02:15:11;;;;;;;;;;;24.40;65.00;;;;;;6298327;27;20395;-42
2022/08/23 02:18:17;;;;;;;;;;;24.40;65.00;;;;;;6319498;27;20435;-44
2022/08/23 02:21:19;;;;;;;;;;;24.60;65.10;;;;;;6311853;27;20378;-40
2022/08/23 02:24:22;;;;;;;;;;;24.60;65.80;;;;;;6318933;27;19950;-42
2022/08/23 02:27:24;;;;;;;;;;;24.50;65.10;;;;;;6297137;27;20592;-41
2022/08/23 02:30:26;;;;;;;;;;;24.60;65.10;;;;;;6314251;27;20743;-41
2022/08/23 02:33:28;;;;;;;;;;;24.40;65.00;;;;;;6319556;27;20085;-42
2022/08/23 02:36:32;;;;;;;;;;;24.60;65.20;;;;;;6315917;27;20147;-42
2022/08/23 02:39:34;;;;;;;;;;;24.40;65.00;;;;;;6317652;27;19934;-42
2022/08/23 02:42:36;;;;;;;;;;;24.60;65.20;;;;;;6319081;27;19923;-44
2022/08/23 02:45:38;;;;;;;;;;;24.50;65.10;;;;;;6317662;27;20592;-41
2022/08/23 02:48:40;;;;;;;;;;;24.60;65.20;;;;;;6315396;27;19959;-43
2022/08/23 02:51:45;;;;;;;;;;;24.60;65.20;;;;;;6320862;27;20079;-41
2022/08/23 02:54:46;;;;;;;;;;;24.80;65.30;;;;;;6318916;27;19927;-43
2022/08/23 02:57:48;;;;;;;;;;;24.40;65.10;;;;;;6316352;27;19970;-43
2022/08/23 03:00:53;;;;;;;;;;;24.70;65.20;;;;;;6317951;27;21188;-43
2022/08/23 03:03:57;;;;;;;;;;;24.50;65.10;;;;;;6318804;27;20212;-43
2022/08/23 03:06:59;;;;;;;;;;;24.70;65.20;;;;;;6300282;27;19982;-44
2022/08/23 03:10:01;;;;;;;;;;;24.60;65.20;;;;;;6316360;27;20387;-43
2022/08/23 03:13:06;;;;;;;;;;;24.70;65.20;;;;;;6318231;27;20517;-42
2022/08/23 03:16:07;;;;;;;;;;;24.50;65.10;;;;;;6316687;27;20332;-40
2022/08/23 03:19:09;;;;;;;;;;;24.50;65.10;;;;;;6297423;27;19923;-42
2022/08/23 03:22:10;;;;;;;;;;;24.50;65.00;;;;;;6315040;27;20387;-39
2022/08/23 03:25:12;;;;;;;;;;;24.60;65.00;;;;;;6318244;27;20323;-40
2022/08/23 03:28:32;;;;;;;;;;;24.40;65.00;;;;;;6322802;27;19943;-40
2022/08/23 03:31:36;;;;;;;;;;;24.80;65.10;;;;;;6302906;27;19927;-40
2022/08/23 03:34:43;;;;;;;;;;;24.70;65.00;;;;;;6322401;27;19934;-41
2022/08/23 03:37:45;;;;;;;;;;;24.80;65.00;;;;;;6322733;27;20287;-41
2022/08/23 03:40:51;;;;;;;;;;;24.60;64.90;;;;;;6304263;27;19934;-40
2022/08/23 03:43:53;;;;;;;;;;;24.90;65.10;;;;;;6323850;27;20609;-44
2022/08/23 03:46:54;;;;;;;;;;;24.60;65.00;;;;;;6323595;27;19927;-40
2022/08/23 03:49:56;;;;;;;;;;;24.70;65.10;;;;;;6321875;27;20734;-39
2022/08/23 03:52:58;;;;;;;;;;;24.70;65.10;;;;;;6321657;27;20038;-40
2022/08/23 03:55:59;;;;;;;;;;;24.90;65.30;;;;;;6321561;27;20745;-43
2022/08/23 03:59:05;;;;;;;;;;;24.90;65.20;;;;;;6319566;27;19985;-42
2022/08/23 04:02:06;;;;;;;;;;;24.60;65.00;;;;;;6302258;27;20355;-41
2022/08/23 04:05:09;;;;;;;;;;;24.70;65.20;;;;;;6320234;27;21022;-43
2022/08/23 04:08:22;;;;;;;;;;;24.60;65.10;;;;;;6319957;27;19927;-40
2022/08/23 04:11:35;;;;;;;;;;;25.00;65.40;;;;;;6322533;27;20288;-41
2022/08/23 04:14:40;;;;;;;;;;;24.70;65.20;;;;;;6322269;27;20279;-39
2022/08/23 04:17:41;;;;;;;;;;;24.40;65.00;;;;;;6315161;27;20750;-42
2022/08/23 04:20:44;;;;;;;;;;;24.50;65.10;;;;;;6316645;27;20338;-42
2022/08/23 04:23:52;;;;;;;;;;;24.50;65.10;;;;;;6315352;27;19927;-42
2022/08/23 04:26:54;;;;;;;;;;;24.60;65.20;;;;;;6314204;27;20082;-43
2022/08/23 04:29:57;;;;;;;;;;;24.50;65.10;;;;;;6316171;27;19948;-40
2022/08/23 04:33:00;;;;;;;;;;;24.60;65.10;;;;;;6314137;27;19927;-39
2022/08/23 04:36:04;;;;;;;;;;;24.50;65.10;;;;;;6314119;27;20685;-39
2022/08/23 04:39:09;;;;;;;;;;;24.60;65.10;;;;;;6314966;27;19927;-41
2022/08/23 04:42:18;;;;;;;;;;;24.80;65.20;;;;;;6314840;27;20504;-40
2022/08/23 04:45:25;;;;;;;;;;;24.70;65.20;;;;;;6318371;27;20065;-40
2022/08/23 04:48:26;;;;;;;;;;;24.70;65.30;;;;;;6315106;27;20202;-41
2022/08/23 04:51:28;;;;;;;;;;;24.70;65.30;;;;;;6315529;27;20193;-41
2022/08/23 04:54:33;;;;;;;;;;;24.40;65.20;;;;;;6315011;27;20033;-41
2022/08/23 04:57:55;;;;;;;;;;;24.60;65.30;;;;;;6311948;27;20074;-41
2022/08/23 05:01:03;;;;;;;;;;;24.20;65.20;;;;;;6313576;27;20275;-39
2022/08/23 05:04:04;;;;;;;;;;;24.80;65.60;;;;;;6306488;27;19934;-39
2022/08/23 05:07:08;;;;;;;;;;;24.70;65.50;;;;;;6324893;27;19966;-40
2022/08/23 05:10:11;;;;;;;;;;;24.50;65.40;;;;;;6324203;27;19973;-40
2022/08/23 05:13:15;;;;;;;;;;;24.60;65.50;;;;;;6300123;27;19923;-40
2022/08/23 05:16:17;;;;;;;;;;;24.60;65.40;;;;;;6298063;27;19934;-40
2022/08/23 05:19:28;;;;;;;;;;;24.50;65.50;;;;;;6314746;27;19919;-40
2022/08/23 05:22:31;;;;;;;;;;;24.70;65.60;;;;;;6316719;27;19930;-40
2022/08/23 05:25:54;;;;;;;;;;;24.30;65.30;;;;;;6318526;27;19927;-41
2022/08/23 05:29:00;;;;;;;;;;;24.60;65.50;;;;;;6299999;27;19919;-39
2022/08/23 05:32:09;;;;;;;;;;;24.50;65.50;;;;;;6319811;27;20984;-39
2022/08/23 05:35:11;;;;;;;;;;;24.50;65.40;;;;;;6318583;27;20785;-42
2022/08/23 05:38:16;;;;;;;;;;;24.30;65.40;;;;;;6325426;27;19927;-40
2022/08/23 05:41:22;;;;;;;;;;;24.60;65.60;;;;;;6324924;27;19940;-41
2022/08/23 05:44:34;;;;;;;;;;;24.70;65.60;;;;;;6319740;27;19926;-42
2022/08/23 05:47:42;;;;;;;;;;;24.70;65.70;;;;;;6317975;27;19940;-39
2022/08/23 05:51:07;;;;;;;;;;;24.30;65.40;;;;;;6316229;27;20034;-42
2022/08/23 05:54:10;;;;;;;;;;;24.60;65.50;;;;;;6249800;27;20155;-39
2022/08/23 05:57:11;;;;;;;;;;;24.60;65.60;;;;;;6308268;27;20528;-39
2022/08/23 06:00:16;;;;;;;;;;;24.60;65.60;;;;;;6285374;27;20711;-42
2022/08/23 06:03:21;;;;;;;;;;;24.40;65.50;;;;;;6287526;27;20691;-40
2022/08/23 06:06:23;;;;;;;;;;;24.70;65.60;;;;;;6303408;27;19966;-40
2022/08/23 06:09:38;;;;;;;;;;;24.40;65.50;;;;;;6301344;27;19926;-40
2022/08/23 06:12:39;;;;;;;;;;;24.70;65.70;;;;;;6292596;27;20580;-39
2022/08/23 06:15:42;;;;;;;;;;;24.60;65.60;;;;;;6294105;27;19930;-42
2022/08/23 06:18:46;;;;;;;;;;;24.60;65.50;;;;;;6305979;27;19934;-40
2022/08/23 06:22:08;;;;;;;;;;;24.70;65.50;;;;;;6304324;27;19927;-40
2022/08/23 06:25:13;;;;;;;;;;;24.70;65.40;;;;;;6310727;27;19962;-40
2022/08/23 06:28:25;;;;;;;;;;;24.60;65.30;;;;;;6296638;27;20793;-42
2022/08/23 06:34:47;;;;;;;;;;;24.60;65.20;;;;;;6277588;27;19931;-40
2022/08/23 06:37:55;;;;;;;;;;;24.50;65.10;;;;;;6230588;27;19927;-40
2022/08/23 06:41:17;;;;;;;;;;;24.70;65.20;;;;;;6278270;27;19933;-39
2022/08/23 06:44:26;;;;;;;;;;;24.80;65.30;;;;;;6280293;27;20341;-42
2022/08/23 06:47:35;;;;;;;;;;;25.10;65.50;;;;;;6271741;27;23336;-40
2022/08/23 06:50:39;;;;;;;;;;;24.60;65.20;;;;;;6245917;27;19933;-39
2022/08/23 06:54:04;;;;;;;;;;;24.50;65.20;;;;;;6259965;27;19927;-39
2022/08/23 06:57:21;;;;;;;;;;;25.00;65.50;;;;;;6232258;27;19927;-40
2022/08/23 07:00:42;;;;;;;;;;;24.70;65.30;;;;;;6204561;27;21128;-39
2022/08/23 07:03:54;;;;;;;;;;;24.70;65.30;;;;;;6230626;27;20000;-38
2022/08/23 07:07:13;;;;;;;;;;;24.70;65.30;;;;;;6226495;27;19933;-40
2022/08/23 07:10:15;;;;;;;;;;;24.50;65.20;;;;;;6197189;27;19935;-39
2022/08/23 07:13:17;;;;;;;;;;;24.50;65.20;;;;;;6187778;27;19926;-40
2022/08/23 07:16:20;;;;;;;;;;;24.80;65.40;;;;;;6197818;27;19958;-39
2022/08/23 07:19:22;;;;;;;;;;;24.70;65.30;;;;;;6209133;27;20103;-40
2022/08/23 07:22:30;;;;;;;;;;;24.80;65.30;;;;;;6142853;27;19927;-40
2022/08/23 07:25:32;;;;;;;;;;;24.90;65.30;;;;;;6181496;27;21075;-39
2022/08/23 07:28:38;;;;;;;;;;;24.70;65.20;;;;;;6132491;27;19997;-40
2022/08/23 07:31:41;;;;;;;;;;;24.70;65.10;;;;;;6137393;27;21897;-38
2022/08/23 07:34:43;;;;;;;;;;;24.90;65.20;;;;;;6132536;27;24056;-40
2022/08/23 07:37:45;;;;;;;;;;;24.70;65.00;;;;;;6107884;27;22896;-39
2022/08/23 07:40:49;;;;;;;;;;;24.90;65.10;;;;;;6111355;27;19927;-40
2022/08/23 07:43:56;;;;;;;;;;;24.70;65.00;;;;;;6117558;27;30349;-39
2022/08/23 07:46:58;;;;;;;;;;;24.50;64.90;;;;;;6134924;27;29445;-38
2022/08/23 07:50:02;;;;;;;;;;;24.80;65.00;;;;;;6150268;27;20195;-40
2022/08/23 07:53:07;;;;;;;;;;;25.10;65.20;;;;;;6144285;27;19969;-40
2022/08/23 07:56:09;;;;;;;;;;;24.90;65.10;;;;;;6122917;27;30084;-39
2022/08/23 07:59:22;;;;;;;;;;;24.90;65.10;;;;;;6097806;27;30481;-38
2022/08/23 08:02:42;;;;;;;;;;;24.90;65.20;;;;;;6102274;27;22264;-39
2022/08/23 08:05:56;;;;;;;;;;;24.80;65.00;;;;;;6093167;27;35875;-39
2022/08/23 08:08:58;;;;;;;;;;;25.00;65.10;;;;;;6106343;27;19927;-39
2022/08/23 08:12:00;;;;;;;;;;;24.80;65.00;;;;;;6118109;27;19954;-38
2022/08/23 08:15:05;;;;;;;;;;;24.80;65.00;;;;;;6147120;27;19948;-39
2022/08/23 08:18:13;;;;;;;;;;;24.70;64.90;;;;;;6171489;27;19927;-39
2022/08/23 08:21:33;;;;;;;;;;;24.90;65.10;;;;;;6128614;27;30559;-39
2022/08/23 08:24:40;;;;;;;;;;;25.10;65.20;;;;;;6162096;27;28724;-39
2022/08/23 08:27:46;;;;;;;;;;;24.80;65.00;;;;;;6131059;27;28486;-39
2022/08/23 08:30:48;;;;;;;;;;;25.20;65.20;;;;;;6153112;27;27913;-39
2022/08/23 08:33:50;;;;;;;;;;;24.60;64.90;;;;;;6149141;27;29791;-40
2022/08/23 08:36:53;;;;;;;;;;;25.10;65.20;;;;;;6104667;27;19927;-40
2022/08/23 08:40:00;;;;;;;;;;;24.90;65.10;;;;;;6132728;27;30669;-40
2022/08/23 08:43:15;;;;;;;;;;;24.90;65.00;;;;;;6168041;27;21673;-39
2022/08/23 08:46:22;;;;;;;;;;;25.10;65.20;;;;;;6158696;27;30509;-39
2022/08/23 08:49:31;;;;;;;;;;;25.00;65.80;;;;;;6145946;27;23409;-40
2022/08/23 08:52:37;;;;;;;;;;;25.00;65.10;;;;;;6126712;27;23115;-40
2022/08/23 08:55:47;;;;;;;;;;;24.90;65.10;;;;;;6144774;27;23642;-40
2022/08/23 08:58:50;;;;;;;;;;;25.00;65.20;;;;;;6142399;27;19996;-40
2022/08/23 09:01:52;;;;;;;;;;;25.10;65.20;;;;;;6067036;27;31776;-40
2022/08/23 09:05:06;;;;;;;;;;;24.90;65.00;;;;;;6042888;27;30969;-39
2022/08/23 09:08:14;;;;;;;;;;;25.00;65.20;;;;;;6102069;27;30655;-38
2022/08/23 09:11:21;;;;;;;;;;;25.00;65.10;;;;;;6128080;27;21620;-39
2022/08/23 09:14:38;;;;;;;;;;;25.00;65.10;;;;;;6110978;27;30124;-38
2022/08/23 09:17:43;;;;;;;;;;;24.90;65.00;;;;;;6091671;27;24109;-39
2022/08/23 09:20:46;;;;;;;;;;;25.00;65.10;;;;;;6113849;27;24044;-38
2022/08/23 09:23:49;;;;;;;;;;;25.00;65.10;;;;;;6109069;27;30646;-39
2022/08/23 09:27:15;;;;;;;;;;;24.70;64.90;;;;;;6105868;27;31761;-39
2022/08/23 09:30:17;;;;;;;;;;;25.00;65.00;;;;;;6123553;27;19927;-39
2022/08/23 09:33:20;;;;;;;;;;;25.00;65.10;;;;;;6109099;27;21822;-38
2022/08/23 09:36:24;;;;;;;;;;;25.00;65.10;;;;;;6128469;27;29777;-38
2022/08/23 09:39:31;;;;;;;;;;;24.80;65.00;;;;;;6164765;27;19934;-39
2022/08/23 09:42:39;;;;;;;;;;;25.10;65.10;;;;;;6170767;27;21031;-38
2022/08/23 09:45:54;;;;;;;;;;;25.00;65.00;;;;;;6125586;27;21734;-38
2022/08/23 09:49:00;;;;;;;;;;;25.30;65.20;;;;;;6143875;27;28544;-38
2022/08/23 09:52:13;;;;;;;;;;;24.90;65.20;;;;;;6117042;27;30488;-38
2022/08/23 09:55:28;;;;;;;;;;;25.00;65.00;;;;;;6129429;27;22896;-38
2022/08/23 09:58:35;;;;;;;;;;;25.10;65.10;;;;;;6104060;27;19927;-39
2022/08/23 10:01:36;;;;;;;;;;;25.10;65.10;;;;;;6099897;27;20589;-38
2022/08/23 10:04:54;;;;;;;;;;;24.90;65.00;;;;;;6144840;27;19967;-39
2022/08/23 10:07:58;;;;;;;;;;;25.10;65.70;;;;;;6128882;27;19927;-38
2022/08/23 10:11:04;;;;;;;;;;;24.90;64.90;;;;;;6160249;27;29027;-39
2022/08/23 10:14:13;;;;;;;;;;;25.00;65.00;;;;;;6163315;27;21969;-41
2022/08/23 10:17:24;;;;;;;;;;;25.10;65.10;;;;;;6227655;27;20862;-40
2022/08/23 10:20:30;;;;;;;;;;;25.10;65.10;;;;;;6205792;27;19933;-39
2022/08/23 10:23:39;;;;;;;;;;;25.20;65.20;;;;;;6228067;27;19927;-38
2022/08/23 10:26:44;;;;;;;;;;;25.20;65.20;;;;;;6219348;27;20007;-38
2022/08/23 10:29:47;;;;;;;;;;;25.10;65.10;;;;;;6212579;27;19999;-38
2022/08/23 10:32:54;;;;;;;;;;;25.10;65.10;;;;;;6238780;27;19931;-38
2022/08/23 10:36:01;;;;;;;;;;;25.10;65.10;;;;;;6244407;27;19927;-39
2022/08/23 10:39:05;;;;;;;;;;;25.10;65.20;;;;;;6239393;27;19938;-38
2022/08/23 10:42:16;;;;;;;;;;;25.20;65.20;;;;;;6238029;27;19927;-38
2022/08/23 10:45:24;;;;;;;;;;;25.10;65.10;;;;;;6261777;27;20876;-42
2022/08/23 10:48:28;;;;;;;;;;;25.10;65.20;;;;;;6264881;27;19927;-38
2022/08/23 10:51:33;;;;;;;;;;;25.10;65.10;;;;;;6275901;27;20107;-38
2022/08/23 10:54:45;;;;;;;;;;;25.20;65.30;;;;;;6279873;27;19927;-38
2022/08/23 10:57:50;;;;;;;;;;;24.90;65.00;;;;;;6268895;27;20021;-38
2022/08/23 11:00:53;;;;;;;;;;;24.80;64.90;;;;;;6235309;27;22537;-39
2022/08/23 11:03:59;;;;;;;;;;;25.20;65.20;;;;;;6243863;27;19935;-38
2022/08/23 11:07:14;;;;;;;;;;;25.10;65.10;;;;;;6240603;27;21771;-39
2022/08/23 11:10:24;;;;;;;;;;;25.10;65.10;;;;;;6283531;27;19930;-38
2022/08/23 11:13:26;;;;;;;;;;;25.10;65.00;;;;;;6284551;27;19934;-38
2022/08/23 11:16:29;;;;;;;;;;;25.10;65.00;;;;;;6281741;27;19927;-38
2022/08/23 11:19:42;;;;;;;;;;;25.00;64.90;;;;;;6268971;27;19927;-40
2022/08/23 11:23:00;;;;;;;;;;;25.10;65.10;;;;;;6255675;27;19934;-39
2022/08/23 11:26:02;;;;;;;;;;;25.20;65.00;;;;;;6227970;27;19934;-38
2022/08/23 11:29:19;;;;;;;;;;;25.20;65.10;;;;;;6239658;27;20015;-38
2022/08/23 11:32:32;;;;;;;;;;;25.00;64.90;;;;;;6246339;27;20004;-38
2022/08/23 11:35:37;;;;;;;;;;;25.30;65.10;;;;;;6251597;27;19927;-38
2022/08/23 11:39:01;;;;;;;;;;;25.30;65.10;;;;;;6233667;27;19934;-37
2022/08/23 11:42:05;;;;;;;;;;;25.20;65.00;;;;;;6206113;27;19926;-39
2022/08/23 11:45:19;;;;;;;;;;;25.00;64.80;;;;;;6211853;27;20917;-38
2022/08/23 11:48:34;;;;;;;;;;;25.30;65.00;;;;;;6189038;27;20024;-38
2022/08/23 11:51:40;;;;;;;;;;;25.20;64.90;;;;;;6237894;27;19945;-41
2022/08/23 11:54:51;;;;;;;;;;;25.30;65.00;;;;;;6211392;27;20047;-38
2022/08/23 11:57:56;;;;;;;;;;;25.20;65.00;;;;;;6185248;27;19927;-39
2022/08/23 12:01:06;;;;;;;;;;;25.30;65.00;;;;;;6177268;27;19927;-38
2022/08/23 12:04:12;;;;;;;;;;;25.20;64.90;;;;;;6160458;27;19934;-38
2022/08/23 12:07:30;;;;;;;;;;;25.30;64.90;;;;;;6171538;27;19971;-38
2022/08/23 12:10:46;;;;;;;;;;;25.10;64.80;;;;;;6179786;27;19972;-39
2022/08/23 12:13:51;;;;;;;;;;;25.30;64.90;;;;;;6139885;27;19927;-39
2022/08/23 12:16:52;;;;;;;;;;;25.20;65.20;;;;;;6149256;27;22062;-38
2022/08/23 12:19:59;;;;;;;;;;;25.30;65.00;;;;;;6167971;27;23781;-38
2022/08/23 12:23:06;;;;;;;;;;;25.20;64.80;;;;;;6102569;27;29517;-38
2022/08/23 12:26:11;;;;;;;;;;;25.50;64.90;;;;;;6140320;27;30603;-40
2022/08/23 12:29:18;;;;;;;;;;;25.40;64.90;;;;;;6119487;27;22677;-39
2022/08/23 12:32:23;;;;;;;;;;;25.30;64.80;;;;;;6146559;27;20031;-40
2022/08/23 12:35:33;;;;;;;;;;;25.40;64.80;;;;;;6145319;27;19934;-41
2022/08/23 12:38:38;;;;;;;;;;;25.20;64.70;;;;;;6158637;27;20668;-38
2022/08/23 12:41:49;;;;;;;;;;;25.30;64.80;;;;;;6176348;27;20414;-42
2022/08/23 12:44:58;;;;;;;;;;;25.40;64.80;;;;;;6167307;27;19926;-40
2022/08/23 12:48:01;;;;;;;;;;;25.40;64.90;;;;;;6118295;27;30169;-40
2022/08/23 12:51:06;;;;;;;;;;;25.50;65.00;;;;;;6151549;27;29546;-41
2022/08/23 12:54:14;;;;;;;;;;;25.30;64.80;;;;;;6142235;27;19938;-40
2022/08/23 12:57:18;;;;;;;;;;;25.40;64.80;;;;;;6141827;27;20327;-40
2022/08/23 13:00:21;;;;;;;;;;;25.40;64.80;;;;;;6140627;27;20305;-40
2022/08/23 13:03:24;;;;;;;;;;;25.40;64.80;;;;;;6143159;27;21316;-41
2022/08/23 13:06:29;;;;;;;;;;;25.50;64.90;;;;;;6150398;27;22175;-40
2022/08/23 13:09:32;;;;;;;;;;;25.20;64.70;;;;;;6136296;27;34179;-40
2022/08/23 13:12:34;;;;;;;;;;;25.40;64.80;;;;;;6144838;27;21732;-39
2022/08/23 13:15:41;;;;;;;;;;;25.50;64.90;;;;;;6166016;27;20626;-40
2022/08/23 13:18:42;;;;;;;;;;;25.50;65.00;;;;;;6122481;27;19966;-40
2022/08/23 13:21:44;;;;;;;;;;;25.50;64.90;;;;;;6146653;27;30583;-41
2022/08/23 13:24:59;;;;;;;;;;;25.50;65.00;;;;;;6138165;27;40147;-40
2022/08/23 13:28:21;;;;;;;;;;;25.30;64.80;;;;;;6103807;27;23534;-39
2022/08/23 13:31:23;;;;;;;;;;;25.50;64.90;;;;;;6149202;27;19934;-41
2022/08/23 13:34:30;;;;;;;;;;;25.40;64.80;;;;;;6188500;27;22386;-40
2022/08/23 13:37:32;;;;;;;;;;;25.50;64.90;;;;;;6116821;27;20668;-43
2022/08/23 13:40:39;;;;;;;;;;;24.70;64.50;;;;;;6157328;27;20825;-41
2022/08/23 13:43:45;;;;;;;;;;;25.30;64.80;;;;;;6138903;27;20061;-42
2022/08/23 13:46:47;;;;;;;;;;;25.20;64.80;;;;;;6133721;27;30805;-38
2022/08/23 13:49:49;;;;;;;;;;;25.40;65.00;;;;;;6134230;27;30218;-41
2022/08/23 13:52:51;;;;;;;;;;;25.40;65.00;;;;;;6141337;27;20062;-40
2022/08/23 13:56:13;;;;;;;;;;;25.50;65.00;;;;;;6140249;27;20899;-42
2022/08/23 13:59:18;;;;;;;;;;;25.40;65.00;;;;;;6158967;27;30021;-39
2022/08/23 14:02:20;;;;;;;;;;;25.40;65.00;;;;;;6156571;27;23290;-41
2022/08/23 14:05:23;;;;;;;;;;;25.70;65.30;;;;;;6157942;27;19931;-40
2022/08/23 14:08:25;;;;;;;;;;;25.30;65.00;;;;;;6151924;27;21561;-39
2022/08/23 14:11:26;;;;;;;;;;;25.30;65.00;;;;;;6135436;27;30024;-41
2022/08/23 14:14:30;;;;;;;;;;;25.40;65.20;;;;;;6149976;27;19927;-41
2022/08/23 14:17:33;;;;;;;;;;;25.40;65.10;;;;;;6109806;27;21349;-41
2022/08/23 14:20:35;;;;;;;;;;;25.40;65.10;;;;;;6155557;27;20536;-39
2022/08/23 14:23:53;;;;;;;;;;;25.30;65.10;;;;;;6140243;27;30261;-41
2022/08/23 14:26:55;;;;;;;;;;;25.30;65.10;;;;;;6161158;27;30327;-42
2022/08/23 14:29:56;;;;;;;;;;;25.30;65.10;;;;;;6159915;27;27637;-39
2022/08/23 14:32:58;;;;;;;;;;;25.30;65.10;;;;;;6178188;27;19927;-39
2022/08/23 14:36:00;;;;;;;;;;;25.10;65.00;;;;;;6170667;27;19926;-39
2022/08/23 14:39:02;;;;;;;;;;;25.40;65.30;;;;;;6183065;27;20088;-40
2022/08/23 14:42:04;;;;;;;;;;;25.30;65.10;;;;;;6136426;27;30445;-40
2022/08/23 14:45:06;;;;;;;;;;;25.40;65.30;;;;;;6139704;27;29919;-39
2022/08/23 14:48:10;;;;;;;;;;;25.40;65.20;;;;;;6135045;27;19934;-39
2022/08/23 14:51:17;;;;;;;;;;;25.30;65.20;;;;;;6144429;27;20900;-41
2022/08/23 14:54:21;;;;;;;;;;;25.30;65.20;;;;;;6143584;27;20872;-40
2022/08/23 14:57:23;;;;;;;;;;;25.30;65.30;;;;;;6153171;27;21112;-41
2022/08/23 15:00:25;;;;;;;;;;;25.30;65.40;;;;;;6155280;27;19927;-40
2022/08/23 15:03:27;;;;;;;;;;;25.30;65.30;;;;;;6072605;27;30117;-42
2022/08/23 15:06:28;;;;;;;;;;;25.30;65.30;;;;;;6125380;27;19935;-41
2022/08/23 15:09:30;;;;;;;;;;;25.30;65.40;;;;;;6146538;27;29245;-39
2022/08/23 15:12:32;;;;;;;;;;;25.30;65.30;;;;;;6104726;27;28424;-40
2022/08/23 15:15:53;;;;;;;;;;;25.30;65.70;;;;;;6137149;27;19927;-42
2022/08/23 15:18:55;;;;;;;;;;;25.20;65.30;;;;;;6153573;27;19927;-40
2022/08/23 15:21:57;;;;;;;;;;;25.10;65.20;;;;;;6127494;27;22209;-40
2022/08/23 15:24:59;;;;;;;;;;;25.20;65.30;;;;;;6149304;27;19927;-43
2022/08/23 15:28:01;;;;;;;;;;;25.30;65.30;;;;;;6171945;27;19967;-40
2022/08/23 15:31:02;;;;;;;;;;;25.20;65.30;;;;;;6121080;27;19927;-39
2022/08/23 15:34:04;;;;;;;;;;;25.10;65.20;;;;;;6144500;27;20135;-40
2022/08/23 15:37:06;;;;;;;;;;;25.50;65.60;;;;;;6158318;27;20343;-44
2022/08/23 15:40:10;;;;;;;;;;;25.10;65.20;;;;;;6143167;27;30793;-41
2022/08/23 15:43:11;;;;;;;;;;;25.10;65.20;;;;;;6162691;27;30361;-40
2022/08/23 15:46:15;;;;;;;;;;;25.30;65.40;;;;;;6180853;27;29949;-38
2022/08/23 15:49:17;;;;;;;;;;;25.20;65.40;;;;;;6169208;27;19927;-40
2022/08/23 15:52:19;;;;;;;;;;;25.20;65.40;;;;;;6192771;27;19927;-41
2022/08/23 15:55:22;;;;;;;;;;;25.20;65.40;;;;;;6176992;27;20318;-41
2022/08/23 15:58:24;;;;;;;;;;;25.10;65.90;;;;;;6168418;27;19928;-41
2022/08/23 16:01:28;;;;;;;;;;;25.20;65.40;;;;;;6209238;27;20976;-39
2022/08/23 16:04:30;;;;;;;;;;;25.30;65.50;;;;;;6186739;27;21061;-39
2022/08/23 16:07:37;;;;;;;;;;;25.40;65.70;;;;;;6228028;27;20098;-39
2022/08/23 16:10:39;;;;;;;;;;;25.20;65.50;;;;;;6237073;27;19927;-40
2022/08/23 16:13:42;;;;;;;;;;;25.20;65.50;;;;;;6245969;27;19953;-41
2022/08/23 16:16:45;;;;;;;;;;;25.40;65.70;;;;;;6234801;27;20380;-43
2022/08/23 16:19:47;;;;;;;;;;;25.10;65.40;;;;;;6255543;27;20133;-40
2022/08/23 16:22:48;;;;;;;;;;;25.00;65.40;;;;;;6250627;27;19929;-40
2022/08/23 16:25:50;;;;;;;;;;;25.20;65.60;;;;;;6266014;27;20362;-39
2022/08/23 16:28:53;;;;;;;;;;;25.30;65.60;;;;;;6259012;27;20181;-39
2022/08/23 16:31:55;;;;;;;;;;;25.20;65.50;;;;;;6235631;27;19926;-40
2022/08/23 16:34:56;;;;;;;;;;;25.20;65.50;;;;;;6270197;27;19927;-38
2022/08/23 16:37:58;;;;;;;;;;;25.30;65.60;;;;;;6275936;27;20082;-39
2022/08/23 16:41:00;;;;;;;;;;;25.00;65.40;;;;;;6276351;27;20445;-40
2022/08/23 16:44:01;;;;;;;;;;;25.20;65.60;;;;;;6265900;27;20250;-41
2022/08/23 16:47:04;;;;;;;;;;;25.10;66.20;;;;;;6269108;27;21717;-39
2022/08/23 16:50:10;;;;;;;;;;;25.10;65.50;;;;;;6258623;27;20219;-39
2022/08/23 16:53:11;;;;;;;;;;;25.20;65.60;;;;;;6282694;27;20603;-39
2022/08/23 16:56:14;;;;;;;;;;;25.20;65.60;;;;;;6283351;27;20361;-40
2022/08/23 16:59:15;;;;;;;;;;;25.00;65.50;;;;;;6262392;27;20855;-38
2022/08/23 17:02:25;;;;;;;;;;;25.20;65.60;;;;;;6286095;27;19974;-41
2022/08/23 17:05:30;;;;;;;;;;;25.10;65.60;;;;;;6263059;27;19932;-38
2022/08/23 17:08:31;;;;;;;;;;;24.90;65.50;;;;;;6288576;27;20501;-39
2022/08/23 17:11:34;;;;;;;;;;;25.30;65.80;;;;;;6282126;27;20423;-40
2022/08/23 17:14:35;;;;;;;;;;;25.20;65.70;;;;;;6283720;27;20219;-41
2022/08/23 17:17:37;;;;;;;;;;;25.30;65.80;;;;;;6295330;27;20255;-39
2022/08/23 17:20:40;;;;;;;;;;;25.10;65.60;;;;;;6292869;27;19928;-40
2022/08/23 17:23:41;;;;;;;;;;;25.40;65.80;;;;;;6296555;27;20135;-40
2022/08/23 17:26:43;;;;;;;;;;;25.10;65.60;;;;;;6300896;27;19975;-38
2022/08/23 17:29:48;;;;;;;;;;;25.20;66.30;;;;;;6289355;27;19983;-40
2022/08/23 17:32:52;;;;;;;;;;;25.10;65.50;;;;;;6278932;27;20550;-39
2022/08/23 17:35:57;;;;;;;;;;;25.20;65.60;;;;;;6277327;27;20041;-40
2022/08/23 17:38:58;;;;;;;;;;;25.00;65.60;;;;;;6293304;27;20350;-40
2022/08/23 17:42:00;;;;;;;;;;;25.00;65.60;;;;;;6293453;27;20738;-40
2022/08/23 17:45:02;;;;;;;;;;;25.10;65.60;;;;;;6295581;27;19969;-39
2022/08/23 17:48:05;;;;;;;;;;;25.10;65.70;;;;;;6302041;27;20502;-38
2022/08/23 17:51:06;;;;;;;;;;;25.10;65.70;;;;;;6302052;27;20533;-42
2022/08/23 17:54:08;;;;;;;;;;;25.30;65.80;;;;;;6307372;27;20773;-38
2022/08/23 17:57:10;;;;;;;;;;;24.90;65.60;;;;;;6305620;27;20247;-39
2022/08/23 18:00:16;;;;;;;;;;;25.00;65.60;;;;;;6303249;27;20132;-38
2022/08/23 18:03:18;;;;;;;;;;;25.10;65.70;;;;;;6283792;27;19927;-38
2022/08/23 18:06:22;;;;;;;;;;;25.10;65.80;;;;;;6309569;27;20328;-38